Loomis, WA

10:30 PM PDT on July 25, 2016 (GMT -0700)
Anarchist Mountain Observatory | | Change Station
Active Advisory: Flood Warning

Elev 2625 ft 49.03 °N, 119.40 °W | Updated 22 minutes ago

Mostly Cloudy
Mostly Cloudy
76.3 °F
Feels Like 78 °F
N
8.0
Wind Variable Wind from ESE
Gusts 14.0 mph

Today
High -- | Low -- °F
--% Chance of Precip.
Yesterday
High -- | Low -- °F
Precip. -- in
Pressure 29.97 in
Visibility 10.0 miles
Clouds Mostly Cloudy 11000 ft
Heat Index 78 °F
Dew Point 61 °F
Humidity 59%
Rainfall 0.00 in
Snow Depth Not available.
5:23 AM 8:45 PM
Waning Gibbous, 58% visible
SPECI KOMK 260519Z AUTO 30010KT 10SM VCTS BKN110 24/13 A2997 RMK AO2 WSHFT 0459 LTG DSNT W T02390133
Pressure 29.97 in
Visibility 10.0 miles
Clouds Mostly Cloudy 11000 ft
Heat Index 78 °F
Dew Point 61 °F
Humidity 59%
Rainfall 0.00 in
Snow Depth Not available.
5:23 AM 8:45 PM
Waning Gibbous, 58% visible
SPECI KOMK 260519Z AUTO 30010KT 10SM VCTS BKN110 24/13 A2997 RMK AO2 WSHFT 0459 LTG DSNT W T02390133

10-Day Weather Forecast

Almanac

Astronomy

Jul. 25, 2016 Rise Set
Actual Time
Civil Twilight
Nautical Twilight
Astronomical Twilight
Moon
Length of Visible Light
Length of Day
Tomorrow will be .
, % of the Moon is Illuminated

Today's Extremes

State Highs State Lows

Community

WunderPhotos

Upload Photos

1,927,538 photos uploaded!

WunderBlog® & News

Nearby

Air Quality

  Air Quality AQ Index Pollutant
Not available.

Snow Depth

Station Depth Elevation

Earthquake Activity

City Distance Mag. Time & Date
Minimum magnitude displayed is 2.5.

Coastal Water Temperatures

Place Temperature

Stations

Nearby Weather Stations

Station Location Temp. Windchill Dew Point Humidity Wind Precip. Elev Updated Type
                   

Watches & Warnings

Flood Warning
Issued: 10:28 PM PDT Jul. 25, 2016 – National Weather Service

... The Flash Flood Warning for northern Okanogan County will expire
at 1030 PM PDT...

Thunderstorms continue to weaken over the area... with the heaviest
rains well east of the flash flood threat area. Flooding is no
longer expected to pose a threat. Be alert and heed any Road
closures.

Lat... Lon 4882 11971 4877 11968 4873 11968 4868 11974
      4871 11983 4879 11981